M I D A S
Marine Information and Data Acquisition System
Tripno 1743 of the Zeeleeuw from 2009-07-31 09:58:22 to 2009-07-31 15:18:02
Back to CruiseResearch ActivitiesStationsMapUnderway DataData graphs

EquipmentUnitsComment
TimeDGPSUTC
LatitudeDGPSDM.mWGS84
LongitudeDGPSDM.mWGS84
TemperatureSBE03/SBE38deg celciusITS90
ConductivitySBE21S/mITS90
SalinitySBE21 Practical Salinity Units
ChlorophylAChelsea fluorimeterg/lCalibrated in Aceton
Missing or incorrect values are displayed as -999
Sea surface data collected by the RV Zeeleeuw from 2009-07-31 07:15:07 to 2009-07-31 15:25:39
Time Latitude Longitude Temperature Conductivity Salinity ChlorophylA
2009-07-31 07:16:12 51°13.665 2°55.961 21.0714 1.027822 6.797133 11.919156
2009-07-31 07:17:12 51°13.665 2°55.961 21.0735 1.027925 6.799045 11.919156
2009-07-31 07:18:12 51°13.665 2°55.96 21.0731 1.041429 6.896405 11.919156
2009-07-31 07:19:12 51°13.664 2°55.96 21.0804 1.006794 6.650642 11.884332
2009-07-31 07:20:12 51°13.664 2°55.959 21.0818 1.025967 6.788356 11.884332
2009-07-31 07:21:13 51°13.664 2°55.959 21.0835 1.024318 6.777644 11.884332
2009-07-31 07:22:12 51°13.664 2°55.96 21.0836 1.024833 6.782364 11.884332
2009-07-31 07:23:12 51°13.664 2°55.96 21.0861 1.021741 6.761359 11.884332
2009-07-31 07:24:12 51°13.664 2°55.96 21.081 1.032461 6.838882 11.884332
2009-07-31 07:25:12 51°13.661 2°55.958 21.0881 1.036275 6.867037 11.884332
2009-07-31 07:26:12 51°13.66 2°55.958 21.0895 1.033492 6.848221 11.884332
2009-07-31 07:27:12 51°13.663 2°55.96 21.0912 1.029781 6.822781 11.884332
2009-07-31 07:28:12 51°13.662 2°55.959 21.1023 1.041842 6.909995 11.849508
2009-07-31 07:29:13 51°13.663 2°55.959 21.097 1.026586 6.801939 11.849508
2009-07-31 07:30:12 51°13.662 2°55.959 21.0912 1.021535 6.766933 11.849508
2009-07-31 07:31:12 51°13.66 2°55.959 21.1031 1.01669 6.733275 11.849508
2009-07-31 07:32:13 51°13.66 2°55.959 21.0961 1.021535 6.768893 11.849508
2009-07-31 07:33:12 51°13.662 2°55.96 21.1074 1.035038 6.866414 11.849508
2009-07-31 07:34:12 51°13.666 2°55.962 21.1077 1.028544 6.821056 11.849508
2009-07-31 07:35:12 51°13.661 2°55.96 21.1083 1.025349 6.799145 11.849508
2009-07-31 07:36:12 51°13.662 2°55.961 21.1122 1.01937 6.757486 11.814684
2009-07-31 07:37:12 51°13.664 2°55.961 21.1078 1.023803 6.790197 11.849508
2009-07-31 07:38:12 51°13.662 2°55.96 21.1261 1.015144 6.729259 11.849508
2009-07-31 07:39:12 51°13.662 2°55.96 21.1125 1.004527 6.654379 11.814684
2009-07-31 07:40:12 51°13.662 2°55.96 21.112 1.02102 6.773322 11.849508
2009-07-31 07:41:12 51°13.662 2°55.96 21.1227 1.036378 6.883972 11.814684
2009-07-31 07:42:12 51°13.662 2°55.96 21.1176 1.034729 6.873231 11.814684
2009-07-31 07:43:12 51°13.662 2°55.96 21.1181 1.030709 6.845386 11.814684
2009-07-31 07:44:12 51°13.662 2°55.959 21.1269 1.013804 6.72541 11.814684
2009-07-31 07:45:12 51°13.662 2°55.959 21.1223 1.019267 6.765378 11.814684
2009-07-31 07:46:12 51°13.662 2°55.959 21.1271 1.038646 6.905015 11.814684
2009-07-31 07:47:13 51°13.663 2°55.959 21.1251 1.043801 6.942891 11.814684
2009-07-31 07:48:13 51°13.663 2°55.959 21.1261 1.049161 6.982139 11.814684
2009-07-31 07:49:11 51°13.663 2°55.959 21.1289 1.022772 6.793862 11.814684
2009-07-31 07:50:12 51°13.663 2°55.959 21.1295 1.04277 6.937919 11.814684
2009-07-31 07:51:12 51°13.663 2°55.959 21.1274 1.031637 6.858926 11.814684
2009-07-31 07:52:12 51°13.663 2°55.959 21.1365 1.02772 6.831662 11.814684
2009-07-31 07:53:12 51°13.662 2°55.959 21.1411 1.029885 6.847964 11.814684
2009-07-31 07:54:12 51°13.662 2°55.959 21.1355 1.037616 6.904178 11.814684
2009-07-31 07:55:11 51°13.663 2°55.959 21.1356 1.023597 6.804639 11.814684
2009-07-31 07:56:12 51°13.662 2°55.958 21.1388 1.026483 6.826109 11.814684
2009-07-31 07:57:12 51°13.663 2°55.959 21.1378 1.031843 6.865324 11.814684
2009-07-31 07:58:12 51°13.663 2°55.959 21.1457 1.029369 6.848385 11.814684
2009-07-31 07:59:12 51°13.663 2°55.959 21.1406 1.018443 6.770882 11.814684
2009-07-31 08:00:11 51°13.663 2°55.959 21.1531 0.997621 6.622661 11.814684
2009-07-31 08:01:12 51°13.662 2°55.958 21.1481 1.012155 6.727294 11.814684
2009-07-31 08:02:12 51°13.663 2°55.959 21.1486 1.022772 6.80414 11.814684
2009-07-31 08:03:12 51°13.662 2°55.959 21.1479 1.013804 6.740672 11.814684
2009-07-31 08:04:12 51°13.663 2°55.959 21.1458 1.0371 6.908382 11.849508
2009-07-31 08:05:12 51°13.663 2°55.958 21.1479 1.013289 6.738288 11.849508
2009-07-31 08:06:12 51°13.663 2°55.958 21.1458 1.002466 6.66144 11.849508
2009-07-31 08:07:12 51°13.662 2°55.958 21.1503 1.012464 6.733688 11.849508
2009-07-31 08:08:12 51°13.662 2°55.958 21.1547 1.020917 6.794929 11.849508
2009-07-31 08:09:12 51°13.662 2°55.959 21.155 1.017825 6.773546 11.849508
2009-07-31 08:10:12 51°13.662 2°55.959 21.1566 1.022669 6.80895 11.849508
2009-07-31 08:11:12 51°13.663 2°55.96 21.1519 1.018443 6.779165 11.849508
2009-07-31 08:12:12 51°13.663 2°55.96 21.1529 1.028133 6.84948 11.884332
2009-07-31 08:13:12 51°13.664 2°55.96 21.1545 1.024215 6.822029 11.884332
2009-07-31 08:14:13 51°13.664 2°55.96 21.1479 1.019783 6.790886 11.884332
2009-07-31 08:15:13 51°13.664 2°55.959 21.1553 1.025762 6.834321 11.884332
2009-07-31 08:16:12 51°13.664 2°55.959 21.1521 1.016485 6.768408 11.884332
2009-07-31 08:17:12 51°13.663 2°55.959 21.1548 1.012362 6.739491 11.884332
2009-07-31 08:18:12 51°13.663 2°55.96 21.1588 1.021535 6.805839 11.919156
2009-07-31 08:19:12 51°13.664 2°55.96 21.1547 1.032668 6.88646 11.919156
2009-07-31 08:20:12 51°13.665 2°55.959 21.1569 1.018443 6.784963 11.919156
2009-07-31 08:21:12 51°13.665 2°55.959 21.1574 1.024525 6.829158 11.919156
2009-07-31 08:22:12 51°13.665 2°55.959 21.1594 1.031225 6.877828 11.919156
2009-07-31 08:23:12 51°13.665 2°55.959 21.1566 1.026277 6.842942 11.919156
2009-07-31 08:24:12 51°13.664 2°55.96 21.155 1.028957 6.862733 11.95398
2009-07-31 08:25:12 51°13.663 2°55.96 21.1549 1.026793 6.84771 11.95398
2009-07-31 08:26:12 51°13.661 2°55.96 21.158 1.032977 6.892568 11.95398
2009-07-31 08:27:12 51°13.66 2°55.96 21.1566 1.033184 6.894453 11.95398
2009-07-31 08:28:12 51°13.661 2°55.959 21.1559 1.029267 6.866558 11.988804
2009-07-31 08:29:12 51°13.661 2°55.959 21.1549 1.033184 6.89499 11.988804
2009-07-31 08:30:12 51°13.661 2°55.959 21.1518 1.034008 6.90092 11.988804
2009-07-31 08:31:12 51°13.66 2°55.959 21.1575 1.042873 6.964568 12.023628
2009-07-31 08:32:12 51°13.66 2°55.959 21.1548 1.036276 6.916963 12.023628
2009-07-31 08:33:12 51°13.66 2°55.959 21.1545 1.04308 6.96551 12.023628
2009-07-31 08:34:12 51°13.661 2°55.959 21.1531 1.057718 7.070381 12.058452
2009-07-31 08:35:13 51°13.661 2°55.959 21.1531 1.073181 7.181327 12.058452
2009-07-31 08:36:13 51°13.662 2°55.959 21.1516 1.073387 7.182116 12.093276
2009-07-31 08:37:13 51°13.662 2°55.959 21.1503 1.070603 7.161201 12.093276
2009-07-31 08:38:13 51°13.662 2°55.959 21.1501 1.076583 7.203494 12.093276
2009-07-31 08:39:13 51°13.662 2°55.959 21.1502 1.078954 7.219761 12.1281
2009-07-31 08:40:13 51°13.663 2°55.959 21.1544 1.073181 7.177417 12.1281
2009-07-31 08:41:13 51°13.663 2°55.959 21.1534 1.09019 7.299465 12.162924
2009-07-31 08:42:12 51°13.663 2°55.959 21.1461 1.06648 7.128001 12.162924
2009-07-31 08:43:12 51°13.663 2°55.959 21.1535 1.104108 7.399167 12.162924
2009-07-31 08:44:12 51°13.663 2°55.959 21.1518 1.081531 7.235828 12.197748
2009-07-31 08:45:12 51°13.663 2°55.958 21.1511 1.095242 7.334526 12.232572
2009-07-31 08:46:12 51°13.662 2°55.959 21.1509 1.092871 7.317259 12.232572
2009-07-31 08:47:13 51°13.663 2°55.959 21.1513 1.086067 7.267996 12.267396
2009-07-31 08:48:13 51°13.662 2°55.959 21.145 1.100603 7.372684 12.267396
2009-07-31 08:49:13 51°13.662 2°55.96 21.1466 1.098747 7.359133 12.30222
2009-07-31 08:50:12 51°13.662 2°55.96 21.1468 1.079675 7.221458 12.337044
2009-07-31 08:51:12 51°13.662 2°55.96 21.1469 1.074727 7.185636 12.337044
2009-07-31 08:52:13 51°13.662 2°55.96 21.1436 1.094211 7.325941 12.406692
2009-07-31 08:53:12 51°13.663 2°55.959 21.1468 1.08318 7.246321 12.406692
2009-07-31 08:54:12 51°13.662 2°55.96 21.1521 1.104314 7.398788 12.441517
2009-07-31 08:55:13 51°13.662 2°55.96 21.1528 1.081737 7.235628 12.476341
2009-07-31 08:56:13 51°13.661 2°55.96 21.1481 1.104314 7.398501 12.511165
2009-07-31 08:57:13 51°13.661 2°55.961 21.1476 1.092665 7.314206 12.545989
2009-07-31 08:58:13 51°13.661 2°55.96 21.1371 1.085551 7.262582 12.580813
2009-07-31 08:59:13 51°13.661 2°55.96 21.1338 1.098953 7.359193 12.615637
2009-07-31 09:00:13 51°13.661 2°55.96 21.1371 1.095654 7.335081 12.650461
2009-07-31 09:01:13 51°13.662 2°55.96 21.139 1.109675 7.435954 12.685285
2009-07-31 09:02:12 51°13.662 2°55.96 21.142 1.101428 7.375921 12.720109
2009-07-31 09:03:13 51°13.662 2°55.959 21.1423 1.102974 7.386232 12.754933
2009-07-31 09:04:13 51°13.662 2°55.959 21.1427 1.103489 7.388951 12.789757
2009-07-31 09:05:12 51°13.662 2°55.959 21.1484 1.095448 7.32989 12.859405
2009-07-31 09:06:12 51°13.662 2°55.959 21.1458 1.084005 7.246358 12.894229
2009-07-31 09:07:10 51°13.662 2°55.959 21.1533 1.072665 7.163814 12.929053
2009-07-31 09:08:08 51°13.663 2°55.959 21.1435 1.089262 7.282714 12.963877
2009-07-31 09:09:08 51°13.662 2°55.959 21.1356 1.101531 7.370509 13.033525
2009-07-31 09:10:09 51°13.662 2°55.959 21.1393 1.102149 7.374259 13.06835
2009-07-31 09:11:09 51°13.662 2°55.96 21.1353 1.118748 7.493125 13.103174
2009-07-31 09:12:08 51°13.662 2°55.961 21.1365 1.122665 7.520421 13.172822
2009-07-31 09:13:08 51°13.663 2°55.961 21.1349 1.134419 7.604091 13.207646
2009-07-31 09:14:08 51°13.663 2°55.96 21.1352 1.13545 7.610221 13.277294
2009-07-31 09:15:08 51°13.663 2°55.96 21.1336 1.127614 7.551951 13.312118
2009-07-31 09:16:08 51°13.662 2°55.96 21.1354 1.135759 7.609065 13.381766
2009-07-31 09:17:08 51°13.663 2°55.96 21.137 1.141223 7.646805 13.451414
2009-07-31 09:18:08 51°13.663 2°55.961 21.1356 1.142667 7.655613 13.486238
2009-07-31 09:19:09 51°13.662 2°55.961 21.1414 1.141223 7.643843 13.555886
2009-07-31 09:20:09 51°13.662 2°55.961 21.1351 1.138646 7.623883 13.625534
2009-07-31 09:21:09 51°13.662 2°55.96 21.1351 1.125449 7.52755 13.660358
2009-07-31 09:22:09 51°13.662 2°55.96 21.1367 1.141532 7.642675 13.764831
2009-07-31 09:23:09 51°13.662 2°55.959 21.139 1.148028 7.688732 13.799655
2009-07-31 09:24:09 51°13.662 2°55.959 21.1361 1.158235 7.761654 13.869303
2009-07-31 09:25:09 51°13.661 2°55.96 21.1408 1.142873 7.649992 13.938951
2009-07-31 09:26:09 51°13.661 2°55.959 21.1382 1.143801 7.655956 14.008599
2009-07-31 09:27:09 51°13.666 2°55.938 21.1131 1.067304 7.103996 14.078247
2009-07-31 09:28:13 51°13.692 2°55.856 21.1412 1.128129 7.541498 14.147895
2009-07-31 09:29:12 51°13.723 2°55.778 21.1416 1.121943 7.496161 14.217543
2009-07-31 09:30:13 51°13.766 2°55.705 21.1351 1.092355 7.282414 14.287191
2009-07-31 09:31:12 51°13.812 2°55.65 21.151 1.143491 7.650317 14.391664
2009-07-31 09:32:13 51°13.866 2°55.62 21.1468 1.090087 7.265124 14.461312
2009-07-31 09:33:12 51°13.91 2°55.625 21.1496 1.147512 7.678319 14.53096
2009-07-31 09:34:11 51°13.933 2°55.636 21.1601 1.149884 7.694556 14.600608
2009-07-31 09:35:08 51°13.937 2°55.616 21.1127 1.04112 6.911639 14.70508
2009-07-31 09:36:08 51°13.962 2°55.57 21.1682 1.158647 7.756233 14.774728
2009-07-31 09:37:08 51°14.031 2°55.504 21.1599 1.131325 7.556958 14.844376
2009-07-31 09:38:08 51°14.122 2°55.422 21.1609 1.182465 7.925315 14.948848
2009-07-31 09:39:09 51°14.218 2°55.305 21.1437 1.174938 7.869178 15.053321
2009-07-31 09:40:08 51°14.307 2°55.154 21.1346 1.078437 7.171868 15.122969
2009-07-31 09:41:08 51°14.403 2°54.987 21.1144 1.104932 7.359242 15.227441
2009-07-31 09:42:08 51°14.541 2°54.879 21.1221 0.959382 6.32085 15.297089
2009-07-31 09:43:09 51°14.698 2°54.73 21.1224 1.134418 7.566834 15.401561
2009-07-31 09:44:08 51°14.86 2°54.583 21.1127 0.986798 6.508745 15.471209
2009-07-31 09:45:08 51°15.031 2°54.443 21.1059 0.894041 5.850973 15.575681
2009-07-31 09:46:08 51°15.201 2°54.303 21.0963 0.917023 6.010779 15.645329
2009-07-31 09:47:08 51°15.372 2°54.165 21.1108 1.116169 7.426555 15.749802
2009-07-31 09:48:08 51°15.542 2°54.027 21.1336 1.034626 6.846811 15.854274
2009-07-31 09:49:08 51°15.709 2°53.878 21.1013 0.942479 6.18155 15.958746
2009-07-31 09:50:08 51°15.873 2°53.719 21.1197 0.917126 6.012778 16.063218
2009-07-31 09:51:08 51°16.037 2°53.563 21.1219 1.070808 7.097466 16.132866
2009-07-31 09:52:08 51°16.203 2°53.41 21.1379 1.032358 6.839729 16.237338
2009-07-31 09:53:09 51°16.372 2°53.252 21.1449 1.112664 7.413385 16.376635
2009-07-31 09:54:08 51°16.533 2°53.094 21.1464 0.998858 6.598003 16.446283
2009-07-31 09:55:08 51°16.704 2°52.952 21.1543 0.937841 6.165287 16.550755
2009-07-31 09:56:08 51°16.878 2°52.82 21.1623 1.024524 6.77585 16.655227
2009-07-31 09:57:08 51°17.057 2°52.699 21.1654 0.906305 5.9396 16.759699
2009-07-31 09:58:08 51°17.245 2°52.62 21.1633 1.048026 6.943368 16.898995
2009-07-31 09:59:09 51°17.443 2°52.588 21.1738 0.979686 6.462607 17.003468
2009-07-31 10:00:09 51°17.639 2°52.558 21.1787 0.869515 5.68168 17.10794
2009-07-31 10:01:09 51°17.835 2°52.534 21.2037 1.120087 7.465031 17.247236
2009-07-31 10:02:09 51°18.032 2°52.537 21.1939 1.277438 8.598908 17.351708
2009-07-31 10:03:09 51°18.228 2°52.561 21.197 0.861065 5.6241 17.45618
2009-07-31 10:04:09 51°18.425 2°52.593 21.2234 1.211749 8.128421 17.560652
2009-07-31 10:05:09 51°18.622 2°52.642 21.2296 1.235466 8.295182 17.699949
2009-07-31 10:06:09 51°18.818 2°52.692 21.2422 1.062768 7.052639 17.804421
2009-07-31 10:07:09 51°19.014 2°52.732 21.251 1.156585 7.726552 17.908893
2009-07-31 10:08:09 51°19.21 2°52.779 21.2559 1.04782 6.944303 18.048189
2009-07-31 10:09:08 51°19.404 2°52.826 21.2693 1.075138 7.134588 18.152661
2009-07-31 10:10:09 51°19.604 2°52.872 21.2651 0.973502 6.410545 18.257134
2009-07-31 10:11:09 51°19.802 2°52.92 21.2813 0.952888 6.263351 18.39643
2009-07-31 10:12:09 51°20 2°52.967 21.2913 1.190714 7.969341 18.466078
2009-07-31 10:13:09 51°20.198 2°53.013 21.3051 1.141223 7.611723 18.605374
2009-07-31 10:14:08 51°20.393 2°53.057 21.3089 1.090396 7.245925 18.675022
2009-07-31 10:15:08 51°20.589 2°53.107 21.315 1.044522 6.918078 18.814318
2009-07-31 10:16:08 51°20.784 2°53.151 21.3282 1.057201 7.001223 18.918791
2009-07-31 10:17:09 51°20.982 2°53.192 21.3492 1.113076 7.407065 19.023263
2009-07-31 10:18:09 51°21.177 2°53.235 21.3464 1.184424 7.916563 19.127735
2009-07-31 10:19:08 51°21.37 2°53.277 21.3661 1.263 8.483411 19.232207
2009-07-31 10:20:08 51°21.565 2°53.318 21.3697 1.086581 7.207904 19.301855
2009-07-31 10:21:08 51°21.76 2°53.367 21.3853 1.169473 7.804504 19.406327
2009-07-31 10:22:08 51°21.956 2°53.411 21.3808 0.814695 5.287153 19.510799
2009-07-31 10:23:09 51°22.157 2°53.462 21.3997 0.887755 5.795164 19.615272
2009-07-31 10:24:08 51°22.352 2°53.513 21.4159 1.290123 8.679069 19.68492
2009-07-31 10:25:08 51°22.549 2°53.565 21.416 1.142666 7.610971 19.789392
2009-07-31 10:26:09 51°22.75 2°53.616 21.4219 1.120499 7.450619 19.893864
2009-07-31 10:27:08 51°22.946 2°53.66 21.4366 1.110292 7.373738 19.963512
2009-07-31 10:28:08 51°23.145 2°53.7 21.4495 1.010917 6.662156 20.067984
2009-07-31 10:29:09 51°23.348 2°53.733 21.4624 1.288679 8.666564 20.137632
2009-07-31 10:30:08 51°23.545 2°53.769 21.4688 1.024936 6.757456 20.242105
2009-07-31 10:31:08 51°23.745 2°53.807 21.4904 1.101529 7.311118 20.311753
2009-07-31 10:32:08 51°23.945 2°53.848 21.5067 1.320651 8.89219 20.381401
2009-07-31 10:33:08 51°24.146 2°53.889 21.5082 1.139882 7.581922 20.485873
2009-07-31 10:34:08 51°24.346 2°53.929 21.517 1.319 8.87471 20.520697
2009-07-31 10:35:09 51°24.551 2°53.966 21.5393 1.312503 8.82878 20.625169
2009-07-31 10:36:08 51°24.75 2°53.998 21.5374 1.120602 7.439774 20.659993
2009-07-31 10:37:09 51°24.953 2°54.028 21.5545 1.29497 8.697103 20.764465
2009-07-31 10:38:08 51°25.15 2°54.059 21.5646 1.144006 7.605983 20.799289
2009-07-31 10:39:08 51°25.348 2°54.087 21.5789 1.129365 7.501421 20.903762
2009-07-31 10:40:08 51°25.546 2°54.113 21.5867 1.216904 8.128174 20.938586
2009-07-31 10:41:08 51°25.745 2°54.134 21.5955 1.127406 7.484366 21.008234
2009-07-31 10:42:08 51°25.942 2°54.158 21.6121 1.323229 8.89388 21.077882
2009-07-31 10:43:08 51°26.138 2°54.186 21.6201 1.212367 8.095283 21.112706
2009-07-31 10:44:09 51°26.337 2°54.221 21.6196 0.859828 5.586182 21.14753
2009-07-31 10:45:09 51°26.536 2°54.249 21.6454 1.313946 8.820819 21.252002
2009-07-31 10:46:09 51°26.736 2°54.285 21.6558 1.342516 9.036146 21.286826
2009-07-31 10:47:09 51°26.938 2°54.321 21.666 1.238662 8.276754 21.32165
2009-07-31 10:48:09 51°27.141 2°54.354 21.6785 1.311574 8.806294 21.356474
2009-07-31 10:49:09 51°27.342 2°54.389 21.6959 1.360257 9.157549 21.426122
2009-07-31 10:50:08 51°27.539 2°54.43 21.6845 1.085034 7.171348 21.426122
2009-07-31 10:51:08 51°27.738 2°54.472 21.7054 1.110395 7.352869 21.495771
2009-07-31 10:52:08 51°27.937 2°54.515 21.7197 1.19195 7.939442 21.530595
2009-07-31 10:53:08 51°28.137 2°54.556 21.7276 1.159059 7.700923 21.565419
2009-07-31 10:54:08 51°28.337 2°54.59 21.7507 1.425242 9.625222 21.600243
2009-07-31 10:55:08 51°28.536 2°54.625 21.7515 1.251037 8.353197 21.635067
2009-07-31 10:56:08 51°28.735 2°54.662 21.7517 1.099879 7.269573 21.669891
2009-07-31 10:57:08 51°28.934 2°54.697 21.7766 1.29136 8.644836 21.704715
2009-07-31 10:58:08 51°29.131 2°54.731 21.7926 1.475999 9.988232 21.739539
2009-07-31 10:59:08 51°29.33 2°54.765 21.7995 1.277643 8.544277 21.774363
2009-07-31 11:00:09 51°29.533 2°54.801 21.8158 1.309511 8.766112 21.774363
2009-07-31 11:01:08 51°29.731 2°54.851 21.8187 1.40327 9.4588 21.809187
2009-07-31 11:02:08 51°29.931 2°54.905 21.8408 1.151016 7.630842 21.844011
2009-07-31 11:03:08 51°30.13 2°54.954 21.8499 1.459492 9.862687 21.844011
2009-07-31 11:04:08 51°30.327 2°55.024 21.8704 1.402341 9.44696 21.844011
2009-07-31 11:05:08 51°30.523 2°55.097 21.8604 1.343547 9.015819 21.878835
2009-07-31 11:06:09 51°30.722 2°55.174 21.8616 1.06122 6.986557 21.878835
2009-07-31 11:07:08 51°30.915 2°55.246 21.8948 1.428749 9.633176 21.913659
2009-07-31 11:08:08 51°31.111 2°55.309 21.907 1.402238 9.431959 21.913659
2009-07-31 11:09:09 51°31.312 2°55.279 21.9136 1.219997 8.114558 21.948483
2009-07-31 11:10:09 51°31.51 2°55.229 21.93 1.388312 9.331814 21.948483
2009-07-31 11:11:09 51°31.705 2°55.177 21.932 1.07658 7.089958 21.948483
2009-07-31 11:12:09 51°31.894 2°55.09 21.9471 1.327972 8.882077 21.983307
2009-07-31 11:13:08 51°32.081 2°54.999 21.9541 1.323744 8.853674 21.983307
2009-07-31 11:14:08 51°32.274 2°54.923 21.9554 1.343031 8.995228 21.983307
2009-07-31 11:15:08 51°32.469 2°54.855 21.9653 1.304664 8.720025 21.983307
2009-07-31 11:16:08 51°32.664 2°54.793 21.9944 1.405539 9.448794 21.983307
2009-07-31 11:17:08 51°32.859 2°54.722 21.9913 1.447318 9.752874 22.018131
2009-07-31 11:18:08 51°33.054 2°54.713 22.006 1.304045 8.714554 22.018131
2009-07-31 11:19:08 51°33.232 2°54.828 22.0221 1.259183 8.390994 22.018131
2009-07-31 11:20:08 51°33.377 2°55.03 22.0139 1.354995 9.079564 22.018131
2009-07-31 11:21:08 51°33.467 2°55.296 22.0451 1.437518 9.683368 22.052955
2009-07-31 11:22:08 51°33.486 2°55.511 22.0654 1.508498 10.202689 22.052955
2009-07-31 11:23:08 51°33.481 2°55.61 22.0584 1.494775 10.101322 22.052955
2009-07-31 11:24:09 51°33.478 2°55.673 22.0674 1.604769 10.907096 22.018131
2009-07-31 11:25:08 51°33.478 2°55.716 22.0882 1.648113 11.225433 22.018131
2009-07-31 11:26:08 51°33.479 2°55.747 22.0927 1.533879 10.380885 22.018131
2009-07-31 11:27:09 51°33.48 2°55.766 22.1192 1.767741 12.108665 22.018131
2009-07-31 11:28:08 51°33.482 2°55.777 22.1114 1.626234 11.056729 21.983307
2009-07-31 11:29:09 51°33.485 2°55.785 22.1414 1.802014 12.358603 21.983307
2009-07-31 11:30:09 51°33.49 2°55.788 22.1508 1.750914 11.976068 21.983307
2009-07-31 11:31:09 51°33.498 2°55.79 22.1599 1.568962 10.626576 21.948483
2009-07-31 11:32:08 51°33.507 2°55.79 22.1697 1.766605 12.087527 21.948483
2009-07-31 11:33:09 51°33.518 2°55.79 22.1817 1.542649 10.429185 21.948483
2009-07-31 11:34:09 51°33.528 2°55.788 22.1947 1.858796 12.771337 21.913659
2009-07-31 11:35:09 51°33.538 2°55.787 22.2063 1.638515 11.131309 21.913659
2009-07-31 11:36:08 51°33.548 2°55.783 22.2108 1.651312 11.224057 21.913659
2009-07-31 11:37:08 51°33.557 2°55.779 22.211 1.773005 12.125694 21.913659
2009-07-31 11:38:09 51°33.565 2°55.774 22.2354 1.893695 13.024463 21.878835
2009-07-31 11:39:09 51°33.574 2°55.768 22.2399 1.621899 11.003345 21.878835
2009-07-31 11:40:09 51°33.582 2°55.76 22.2471 1.829371 12.539011 21.844011
2009-07-31 11:41:09 51°33.591 2°55.752 22.2592 1.761443 12.032853 21.844011
2009-07-31 11:42:08 51°33.601 2°55.759 22.2636 1.617049 10.963451 21.809187
2009-07-31 11:43:08 51°33.607 2°55.807 22.2731 1.707252 11.627165 21.809187
2009-07-31 11:44:08 51°33.591 2°55.886 22.2911 1.780644 12.170257 21.809187
2009-07-31 11:45:08 51°33.552 2°55.979 22.2923 1.544506 10.425154 21.774363
2009-07-31 11:46:08 51°33.501 2°56.067 22.2995 1.895656 13.023544 21.774363
2009-07-31 11:47:08 51°33.44 2°56.138 22.3047 1.558333 10.523049 21.739539
2009-07-31 11:48:09 51°33.394 2°56.193 22.3086 1.711071 11.646804 21.704715
2009-07-31 11:49:09 51°33.363 2°56.231 22.3214 1.712103 11.650901 21.704715
2009-07-31 11:50:09 51°33.341 2°56.263 22.3353 1.710038 11.635191 21.669891
2009-07-31 11:51:09 51°33.324 2°56.291 22.3425 1.791689 12.23868 21.669891
2009-07-31 11:52:09 51°33.304 2°56.323 22.3578 1.465887 9.840717 21.635067
2009-07-31 11:53:08 51°33.242 2°56.406 22.3549 1.514377 10.191024 21.600243
2009-07-31 11:54:09 51°33.14 2°56.537 22.3647 1.5605 10.527537 21.600243
2009-07-31 11:55:08 51°33.045 2°56.656 22.3772 1.490957 10.017583 21.565419
2009-07-31 11:56:08 51°32.991 2°56.714 22.3837 1.553792 10.475077 21.565419
2009-07-31 11:57:08 51°32.96 2°56.738 22.3976 1.677423 11.382786 21.530595
2009-07-31 11:58:08 51°32.946 2°56.753 22.4184 1.687641 11.455105 21.495771
2009-07-31 11:59:08 51°32.939 2°56.767 22.4076 1.510869 10.155801 21.460946
2009-07-31 12:00:08 51°32.937 2°56.78 22.4309 1.575049 10.625025 21.460946
2009-07-31 12:01:08 51°32.939 2°56.79 22.4424 1.5346 10.32931 21.426122
2009-07-31 12:02:08 51°32.943 2°56.796 22.4415 1.471148 9.866286 21.391298
2009-07-31 12:03:08 51°32.949 2°56.8 22.4586 1.525108 10.256336 21.391298
2009-07-31 12:04:08 51°32.955 2°56.802 22.4382 1.596925 10.780187 21.356474
2009-07-31 12:05:08 51°32.961 2°56.804 22.4744 1.488481 9.986303 21.356474
2009-07-31 12:06:08 51°32.967 2°56.806 22.4836 1.622002 10.960979 21.32165
2009-07-31 12:07:08 51°32.973 2°56.808 22.5029 1.568032 10.564266 21.286826
2009-07-31 12:08:08 51°32.978 2°56.812 22.5037 1.593107 10.74672 21.252002
2009-07-31 12:09:08 51°32.984 2°56.816 22.5196 1.57154 10.587315 21.217178
2009-07-31 12:10:08 51°32.989 2°56.821 22.5147 1.553689 10.455108 21.217178
2009-07-31 12:11:08 51°32.994 2°56.827 22.5381 1.609515 10.862815 21.182354
2009-07-31 12:12:08 51°32.998 2°56.832 22.5306 1.72841 11.735066 21.14753
2009-07-31 12:13:08 51°33.001 2°56.838 22.5498 1.575255 10.608457 21.14753
2009-07-31 12:14:08 51°33.003 2°56.842 22.5511 1.508599 10.12029 21.112706
2009-07-31 12:15:09 51°33.006 2°56.848 22.5702 1.714166 11.626899 21.077882
2009-07-31 12:16:08 51°33.009 2°56.854 22.5739 1.511797 10.142218 21.043058
2009-07-31 12:17:08 51°33.01 2°56.859 22.5779 1.5573 10.472963 21.008234
2009-07-31 12:18:08 51°33.012 2°56.864 22.576 1.707767 11.57404 20.97341
2009-07-31 12:19:08 51°33.013 2°56.869 22.5859 1.613746 10.882504 20.97341
2009-07-31 12:20:08 51°33.014 2°56.874 22.6038 1.588979 10.700714 20.938586
2009-07-31 12:21:08 51°33.017 2°56.877 22.5997 1.498591 10.039739 20.903762
2009-07-31 12:22:08 51°33.022 2°56.878 22.5969 1.468981 9.823211 20.868938
2009-07-31 12:23:08 51°33.028 2°56.878 22.6312 1.820594 12.401899 20.868938
2009-07-31 12:24:08 51°33.034 2°56.877 22.6059 1.502099 10.061235 20.834113
2009-07-31 12:25:08 51°33.039 2°56.878 22.647 1.643467 11.090684 20.834113
2009-07-31 12:26:08 51°33.045 2°56.88 22.6576 1.605902 10.816314 20.764465
2009-07-31 12:27:08 51°33.05 2°56.882 22.6472 1.649762 11.135153 20.729641
2009-07-31 12:28:08 51°33.055 2°56.884 22.6682 1.647492 11.11809 20.729641
2009-07-31 12:29:08 51°33.058 2°56.886 22.6687 1.497456 10.021473 20.694817
2009-07-31 12:30:08 51°33.061 2°56.889 22.6816 1.632321 11.001139 20.659993
2009-07-31 12:31:09 51°33.063 2°56.894 22.6984 1.823382 12.408035 20.625169
2009-07-31 12:32:08 51°33.065 2°56.898 22.7049 1.958748 13.413928 20.625169
2009-07-31 12:33:08 51°33.066 2°56.903 22.7015 1.628812 10.973807 20.590345
2009-07-31 12:34:08 51°33.066 2°56.907 22.7093 1.744203 11.820401 20.555521
2009-07-31 12:35:08 51°33.065 2°56.911 22.7136 1.71654 11.614768 20.520697
2009-07-31 12:36:08 51°33.064 2°56.916 22.7148 1.706734 11.539846 20.520697
2009-07-31 12:37:08 51°33.063 2°56.919 22.7248 1.918991 13.107164 20.485873
2009-07-31 12:38:08 51°33.062 2°56.924 22.7395 1.844959 12.55798 20.451049
2009-07-31 12:39:08 51°33.06 2°56.927 22.7372 1.763919 11.959228 20.416225
2009-07-31 12:40:09 51°33.057 2°56.93 22.7427 1.629431 10.96759 20.416225
2009-07-31 12:41:08 51°33.056 2°56.933 22.7477 1.551005 10.396814 20.381401
2009-07-31 12:42:08 51°33.054 2°56.936 22.7563 1.681963 11.349833 20.346577
2009-07-31 12:43:08 51°33.051 2°56.939 22.7614 1.680208 11.336116 20.346577
2009-07-31 12:44:08 51°33.026 2°56.921 22.7769 1.604973 10.784302 20.311753
2009-07-31 12:45:08 51°33.001 2°56.86 22.7666 1.603425 10.772403 20.276929
2009-07-31 12:46:08 51°32.969 2°56.821 22.7775 1.781055 12.071317 20.242105
2009-07-31 12:47:08 51°32.942 2°56.824 22.788 1.535012 10.268587 20.242105
2009-07-31 12:48:08 51°32.926 2°56.837 22.8181 1.741415 11.778556 20.207281
2009-07-31 12:49:08 51°32.914 2°56.85 22.8064 1.662456 11.195526 20.172456
2009-07-31 12:50:08 51°32.904 2°56.86 22.8109 1.539758 10.300903 20.137632
2009-07-31 12:51:08 51°32.895 2°56.869 22.8373 1.779403 12.051433 20.137632
2009-07-31 12:52:08 51°32.889 2°56.873 22.8362 1.68413 11.350133 20.102808
2009-07-31 12:53:08 51°32.887 2°56.874 22.8297 1.617976 10.865085 20.067984
2009-07-31 12:54:08 51°32.886 2°56.875 22.852 1.983429 13.561429 20.067984
2009-07-31 12:55:08 51°32.885 2°56.876 22.8519 1.751944 11.845093 20.03316
2009-07-31 12:56:08 51°32.883 2°56.877 22.857 1.900507 12.940457 20.03316
2009-07-31 12:57:08 51°32.881 2°56.88 22.8759 1.657502 11.146304 19.998336
2009-07-31 12:58:08 51°32.877 2°56.883 22.8829 1.819561 12.338346 19.963512
2009-07-31 12:59:08 51°32.876 2°56.885 22.8844 1.84692 12.536619 19.963512
2009-07-31 13:00:08 51°32.878 2°56.884 22.8719 1.580103 10.582943 19.928688
2009-07-31 13:01:09 51°32.882 2°56.881 22.9048 1.886464 12.827204 19.893864
2009-07-31 13:02:08 51°32.887 2°56.877 22.9066 1.99293 13.616901 19.893864
2009-07-31 13:03:08 51°32.891 2°56.872 22.9003 1.581548 10.588874 19.85904
2009-07-31 13:04:08 51°32.894 2°56.868 22.9345 1.9857 13.56128 19.85904
2009-07-31 13:05:08 51°32.895 2°56.864 22.9201 1.935202 13.182398 19.824216
2009-07-31 13:06:08 51°32.895 2°56.863 22.9323 1.742241 11.75479 19.789392
2009-07-31 13:07:08 51°32.894 2°56.862 22.9508 1.888013 12.830723 19.754568
2009-07-31 13:08:08 51°32.892 2°56.861 22.9496 1.783119 12.05412 19.754568
2009-07-31 13:09:08 51°32.89 2°56.861 22.9657 1.795713 12.144715 19.719744
2009-07-31 13:10:08 51°32.887 2°56.861 22.9619 1.685058 11.332454 19.719744
2009-07-31 13:11:08 51°32.884 2°56.861 22.9773 1.944909 13.244021 19.68492
2009-07-31 13:12:08 51°32.881 2°56.861 22.9825 1.850946 12.544706 19.650096
2009-07-31 13:13:08 51°32.878 2°56.862 22.9916 1.870666 12.688374 19.650096
2009-07-31 13:14:08 51°32.873 2°56.863 22.9889 1.676285 11.260769 19.650096
2009-07-31 13:15:08 51°32.869 2°56.862 22.988 1.688567 11.347255 19.615272
2009-07-31 13:16:08 51°32.865 2°56.861 22.998 1.84661 12.503115 19.615272
2009-07-31 13:17:08 51°32.863 2°56.857 23.0038 1.813159 12.258441 19.580448
2009-07-31 13:18:08 51°32.863 2°56.852 23.0207 1.925495 13.084601 19.580448
2009-07-31 13:19:08 51°32.863 2°56.846 23.0252 1.719015 11.560276 19.545624
2009-07-31 13:20:08 51°32.863 2°56.84 23.0237 1.641401 10.995754 19.510799
2009-07-31 13:21:08 51°32.862 2°56.834 23.0434 1.835253 12.412243 19.510799
2009-07-31 13:22:08 51°32.86 2°56.829 23.0562 1.96866 13.396766 19.510799
2009-07-31 13:23:08 51°32.857 2°56.825 23.0356 1.810062 12.21942 19.475975
2009-07-31 13:24:08 51°32.854 2°56.822 23.0393 1.806036 12.193269 19.475975
2009-07-31 13:25:08 51°32.85 2°56.819 23.0492 1.78064 12.003055 19.475975
2009-07-31 13:26:08 51°32.846 2°56.815 23.0537 1.724279 11.590309 19.441151
2009-07-31 13:27:08 51°32.837 2°56.821 23.0778 2.104065 14.39538 19.406327
2009-07-31 13:28:08 51°32.82 2°56.863 23.0845 1.978987 13.46079 19.406327
2009-07-31 13:29:08 51°32.793 2°56.934 23.0783 1.643259 10.993854 19.406327
2009-07-31 13:30:08 51°32.761 2°57.018 23.1001 1.965458 13.356533 19.371503
2009-07-31 13:31:08 51°32.729 2°57.109 23.0944 1.679278 11.251446 19.371503
2009-07-31 13:32:08 51°32.696 2°57.202 23.1156 1.877996 12.705875 19.371503
2009-07-31 13:33:08 51°32.662 2°57.295 23.1128 1.849293 12.491808 19.336679
2009-07-31 13:34:08 51°32.629 2°57.39 23.1079 1.892968 12.810235 19.336679
2009-07-31 13:35:08 51°32.597 2°57.485 23.1245 1.897924 12.844608 19.336679
2009-07-31 13:36:08 51°32.565 2°57.582 23.1388 2.026804 13.796446 19.301855
2009-07-31 13:37:08 51°32.528 2°57.692 23.1364 1.865503 12.600233 19.301855
2009-07-31 13:38:09 51°32.472 2°57.857 23.1611 2.233515 15.332945 19.301855
2009-07-31 13:39:09 51°32.382 2°58.055 23.1156 1.43999 9.50887 19.301855
2009-07-31 13:40:09 51°32.284 2°58.259 23.1405 1.611266 10.737803 19.267031
2009-07-31 13:41:09 51°32.152 2°58.463 23.1696 1.610234 10.727542 19.232207
2009-07-31 13:42:09 51°31.989 2°58.611 23.1545 1.520049 10.074969 19.267031
2009-07-31 13:43:09 51°31.807 2°58.698 23.1787 1.495597 9.898803 19.267031
2009-07-31 13:44:09 51°31.61 2°58.741 23.1756 1.497557 9.908632 19.232207
2009-07-31 13:45:09 51°31.41 2°58.77 23.1796 1.290324 8.430404 19.232207
2009-07-31 13:46:09 51°31.211 2°58.774 23.1873 1.422555 9.369401 19.232207
2009-07-31 13:47:09 51°31.014 2°58.711 23.1965 1.618283 10.774946 19.232207
2009-07-31 13:48:09 51°30.825 2°58.587 23.1888 1.393878 9.161452 19.267031
2009-07-31 13:49:09 51°30.637 2°58.463 23.1929 1.515303 10.029484 19.267031
2009-07-31 13:50:09 51°30.447 2°58.343 23.1385 1.937988 13.095548 20.346577
2009-07-31 13:51:09 51°30.256 2°58.226 23.1537 1.662763 11.096941 20.346577
2009-07-31 13:52:09 51°30.064 2°58.112 23.1707 1.535629 10.175849 20.172456
2009-07-31 13:53:09 51°29.87 2°58.003 23.2357 2.272572 15.57688 28.495405
2009-07-31 13:54:09 51°29.676 2°57.89 23.2343 2.28797 15.719197 24.629935
2009-07-31 13:55:09 51°29.481 2°57.775 23.225 2.28828 15.72094 27.206915
2009-07-31 13:56:09 51°29.287 2°57.664 23.2226 2.28704 15.700219 29.99284
2009-07-31 13:57:09 51°29.092 2°57.553 23.2204 2.275569 15.614434 32.360875
2009-07-31 13:58:09 51°28.898 2°57.443 23.2036 2.288176 15.700571 34.694087
2009-07-31 13:59:09 51°28.703 2°57.335 23.2181 2.287246 15.691258 36.539762
2009-07-31 14:00:09 51°28.512 2°57.225 23.1998 2.290139 15.702161 37.619307
2009-07-31 14:01:09 51°28.321 2°57.117 23.2144 2.289313 15.69713 38.907797
2009-07-31 14:02:09 51°28.131 2°57.011 23.2272 2.290863 15.708461 40.056991
2009-07-31 14:03:09 51°27.94 2°56.896 23.2089 2.291276 15.704265 40.997241
2009-07-31 14:04:09 51°27.749 2°56.778 23.2043 2.291689 15.704738 41.798194
2009-07-31 14:05:09 51°27.558 2°56.658 23.2349 2.247049 15.35094 41.728546
2009-07-31 14:06:09 51°27.366 2°56.54 23.2326 2.285282 15.645696 42.285731
2009-07-31 14:07:09 51°27.171 2°56.419 23.2336 2.289105 15.669961 42.494675
2009-07-31 14:08:09 51°26.977 2°56.303 23.229 2.294169 15.695643 43.017036
2009-07-31 14:09:09 51°26.784 2°56.181 23.23 2.294272 15.701071 42.808091
2009-07-31 14:10:09 51°26.59 2°56.057 23.2209 2.295616 15.707049 43.121508
2009-07-31 14:11:09 51°26.399 2°55.942 23.2362 2.262651 15.444307 42.494675
2009-07-31 14:12:09 51°26.21 2°55.831 23.238 2.296649 15.705761 42.773267
2009-07-31 14:13:09 51°26.022 2°55.713 23.2464 2.297165 15.704682 42.877739
2009-07-31 14:14:09 51°25.834 2°55.593 23.2444 2.296132 15.689697 43.086684
2009-07-31 14:15:09 51°25.646 2°55.473 23.2505 2.295925 15.668736 42.808091
2009-07-31 14:16:09 51°25.457 2°55.35 23.2473 2.298818 15.699611 42.633971
2009-07-31 14:17:09 51°25.267 2°55.223 23.2545 2.299438 15.70105 42.633971
2009-07-31 14:18:09 51°25.078 2°55.093 23.2715 2.292928 15.640885 42.320555
2009-07-31 14:19:09 51°24.888 2°54.968 23.2772 2.292514 15.631165 42.250907
2009-07-31 14:20:09 51°24.697 2°54.846 23.2763 2.297784 15.653136 42.216082
2009-07-31 14:21:09 51°24.504 2°54.722 23.2826 2.302745 15.695877 42.494675
2009-07-31 14:22:09 51°24.312 2°54.59 23.2858 2.304191 15.696823 42.216082
2009-07-31 14:23:09 51°24.121 2°54.46 23.2962 2.24777 15.262762 41.798194
2009-07-31 14:24:09 51°23.928 2°54.328 23.3001 2.306568 15.702094 41.93749
2009-07-31 14:25:09 51°23.734 2°54.198 23.3042 2.305638 15.68853 42.007138
2009-07-31 14:26:09 51°23.539 2°54.079 23.3145 2.306878 15.688236 41.798194
2009-07-31 14:27:09 51°23.345 2°53.954 23.3217 2.288173 15.547763 41.728546
2009-07-31 14:28:09 51°23.151 2°53.83 23.3277 2.289103 15.547816 41.58925
2009-07-31 14:29:09 51°22.954 2°53.74 23.3356 2.305844 15.66673 41.624074
2009-07-31 14:30:09 51°22.749 2°53.728 23.3429 2.310287 15.695429 41.728546
2009-07-31 14:31:09 51°22.545 2°53.72 23.3484 2.311424 15.701282 41.554425
2009-07-31 14:32:09 51°22.341 2°53.708 23.3525 2.314628 15.720757 41.728546
2009-07-31 14:33:09 51°22.137 2°53.694 23.3574 2.313904 15.704436 41.76337
2009-07-31 14:34:09 51°21.936 2°53.635 23.3643 2.316178 15.721602 41.693722
2009-07-31 14:35:09 51°21.736 2°53.558 23.3697 2.316281 15.718912 41.624074
2009-07-31 14:36:09 51°21.537 2°53.475 23.3772 2.317107 15.716409 41.658898
2009-07-31 14:37:09 51°21.336 2°53.399 23.3867 2.318554 15.726566 41.798194
2009-07-31 14:38:09 51°21.133 2°53.324 23.3929 2.319277 15.723584 41.693722
2009-07-31 14:39:09 51°20.932 2°53.243 23.4078 2.318967 15.719559 42.11161
2009-07-31 14:40:09 51°20.73 2°53.165 23.4078 2.318864 15.715917 42.007138
2009-07-31 14:41:09 51°20.528 2°53.087 23.4132 2.320001 15.718881 41.93749
2009-07-31 14:42:09 51°20.325 2°53.009 23.4248 2.322171 15.734389 42.250907
2009-07-31 14:43:09 51°20.122 2°52.933 23.4328 2.320311 15.715145 42.390203
2009-07-31 14:44:09 51°19.919 2°52.859 23.4401 2.321137 15.72012 42.320555
2009-07-31 14:45:09 51°19.716 2°52.788 23.4384 2.323514 15.730542 42.564323
2009-07-31 14:46:09 51°19.513 2°52.707 23.4531 2.302432 15.570817 42.425027
2009-07-31 14:47:09 51°19.31 2°52.63 23.464 2.324651 15.733787 42.808091
2009-07-31 14:48:09 51°19.106 2°52.554 23.4703 2.325064 15.731678 42.912564
2009-07-31 14:49:09 51°18.903 2°52.476 23.4757 2.326097 15.736742 42.982212
2009-07-31 14:50:09 51°18.701 2°52.401 23.483 2.325787 15.728995 43.017036
2009-07-31 14:51:09 51°18.499 2°52.326 23.4947 2.326407 15.734156 43.469748
2009-07-31 14:52:09 51°18.296 2°52.251 23.4991 2.327234 15.732238 43.434924
2009-07-31 14:53:09 51°18.094 2°52.194 23.498 2.326924 15.726792 43.643869
2009-07-31 14:54:09 51°17.891 2°52.19 23.5171 2.327234 15.726219 43.713517
2009-07-31 14:55:09 51°17.686 2°52.187 23.5198 2.328784 15.73567 43.957285
2009-07-31 14:56:09 51°17.482 2°52.185 23.5263 2.327957 15.727268 44.061757
2009-07-31 14:57:09 51°17.279 2°52.178 23.5358 2.329301 15.733471 44.235878
2009-07-31 14:58:09 51°17.075 2°52.168 23.5374 2.328267 15.720684 44.34035
2009-07-31 14:59:09 51°16.876 2°52.196 23.553 2.325683 15.696747 44.409998
2009-07-31 15:00:09 51°16.698 2°52.326 23.5317 2.330644 15.733944 44.549294
2009-07-31 15:01:09 51°16.528 2°52.485 23.5467 2.331057 15.732131 44.932359
2009-07-31 15:02:09 51°16.358 2°52.636 23.5603 2.32868 15.712585 44.653766
2009-07-31 15:03:09 51°16.189 2°52.785 23.571 2.331884 15.737662 45.036831
2009-07-31 15:04:09 51°16.026 2°52.937 23.5738 2.332401 15.738614 45.036831
2009-07-31 15:05:09 51°15.869 2°53.103 23.5657 2.330644 15.724504 45.002007
2009-07-31 15:06:09 51°15.717 2°53.279 23.5776 2.331677 15.726127 45.210951
2009-07-31 15:07:09 51°15.566 2°53.455 23.5754 2.309871 15.561105 45.350247
2009-07-31 15:08:09 51°15.416 2°53.633 23.5782 2.33271 15.729464 45.80296
2009-07-31 15:09:09 51°15.268 2°53.815 23.5838 2.333951 15.73804 45.733312
2009-07-31 15:10:09 51°15.121 2°53.997 23.5867 2.331367 15.714417 45.594016
2009-07-31 15:11:09 51°14.968 2°54.173 23.5944 2.306151 15.52214 45.837784
2009-07-31 15:12:09 51°14.815 2°54.351 23.5936 2.332193 15.711384 46.081552
2009-07-31 15:13:09 51°14.665 2°54.533 23.6021 2.32713 15.679479 45.872608
2009-07-31 15:14:09 51°14.529 2°54.735 23.6047 2.333744 15.718814 46.290497
2009-07-31 15:15:09 51°14.406 2°54.952 23.6074 2.33457 15.722909 46.325321
2009-07-31 15:16:09 51°14.298 2°55.183 23.6127 2.336327 15.735567 46.290497
2009-07-31 15:17:09 51°14.197 2°55.34 23.6172 2.33643 15.734046 46.360145
2009-07-31 15:18:09 51°14.086 2°55.436 23.6177 2.335914 15.727387 46.464617
2009-07-31 15:19:09 51°13.975 2°55.518 23.6212 2.335293 15.719116 46.569089
2009-07-31 15:20:09 51°13.863 2°55.598 23.6244 2.335397 15.717313 46.603913
2009-07-31 15:21:11 51°13.765 2°55.702 23.6261 2.334983 15.710854 46.673561
2009-07-31 15:22:10 51°13.712 2°55.804 23.6307 2.33674 15.721222 46.778034
2009-07-31 15:23:09 51°13.68 2°55.89 23.6367 2.33705 15.72151 46.812858
2009-07-31 15:24:09 51°13.665 2°55.95 23.6449 2.339014 15.734536 46.847682
2009-07-31 15:25:09 51°13.662 2°55.959 23.6504 2.33953 15.737198 46.952154